createdAt,value
2019-03-21T00:01:45.444Z,5.12
2019-03-21T00:04:18.917Z,5.20
2019-03-21T00:06:52.302Z,5.10
2019-03-21T00:09:25.746Z,5.62
2019-03-21T00:12:05.506Z,5.90
2019-03-21T00:14:44.949Z,6.05
2019-03-21T00:17:33.502Z,5.83
2019-03-21T00:20:09.852Z,5.70
2019-03-21T00:22:43.451Z,6.10
2019-03-21T00:25:22.360Z,5.25
2019-03-21T00:27:55.840Z,5.40
2019-03-21T00:30:29.239Z,5.95
2019-03-21T00:33:02.643Z,6.33
2019-03-21T00:35:38.489Z,5.75
2019-03-21T00:38:11.675Z,5.87
2019-03-21T00:40:46.006Z,5.83
2019-03-21T00:43:19.404Z,6.45
2019-03-21T00:45:52.799Z,6.17
2019-03-21T00:48:26.595Z,6.08
2019-03-21T00:51:01.230Z,6.25
2019-03-21T00:53:34.681Z,5.83
2019-03-21T00:56:08.147Z,5.95
2019-03-21T00:58:41.553Z,7.28
2019-03-21T01:01:14.870Z,6.50
2019-03-21T01:03:48.582Z,7.08
2019-03-21T01:06:21.896Z,6.97
2019-03-21T01:08:55.349Z,6.80
2019-03-21T01:11:28.763Z,7.45
2019-03-21T01:14:02.238Z,7.35
2019-03-21T01:16:35.590Z,7.33
2019-03-21T01:19:09.086Z,7.30
2019-03-21T01:21:42.543Z,7.83
2019-03-21T01:24:15.939Z,7.30
2019-03-21T01:26:49.440Z,7.40
2019-03-21T01:29:22.924Z,7.87
2019-03-21T01:31:56.435Z,8.28
2019-03-21T01:34:29.805Z,8.35
2019-03-21T01:37:03.326Z,8.53
2019-03-21T01:39:36.711Z,8.00
2019-03-21T01:42:10.121Z,8.15
2019-03-21T01:44:43.335Z,8.63
2019-03-21T01:47:16.691Z,8.68
2019-03-21T01:49:50.193Z,8.13
2019-03-21T01:52:24.255Z,7.67
2019-03-21T01:54:58.076Z,8.65
2019-03-21T01:57:31.503Z,8.63
2019-03-21T02:00:08.239Z,8.83
2019-03-21T02:02:42.240Z,8.30
2019-03-21T02:05:15.640Z,8.43
2019-03-21T02:07:49.775Z,8.68
2019-03-21T02:10:23.554Z,8.23
2019-03-21T02:12:57.132Z,9.25
2019-03-21T02:15:31.038Z,8.70
2019-03-21T02:18:05.009Z,9.93
2019-03-21T02:20:38.825Z,8.80
2019-03-21T02:23:13.946Z,7.47
2019-03-21T02:25:48.445Z,8.75
2019-03-21T02:28:22.080Z,10.35
2019-03-21T02:30:55.623Z,9.40
2019-03-21T02:33:31.722Z,10.05
2019-03-21T02:36:08.491Z,9.20
2019-03-21T02:38:41.927Z,9.75
2019-03-21T02:41:16.155Z,9.30
2019-03-21T02:43:49.846Z,9.65
2019-03-21T02:46:23.283Z,9.70
2019-03-21T02:48:56.631Z,9.48
2019-03-21T02:51:30.241Z,9.15
2019-03-21T02:54:05.386Z,10.08
2019-03-21T02:56:39.816Z,10.58
2019-03-21T02:59:13.532Z,9.70
2019-03-21T03:01:46.951Z,10.28
2019-03-21T03:04:20.389Z,10.08
2019-03-21T03:06:54.550Z,9.95
2019-03-21T03:09:27.982Z,9.73
2019-03-21T03:12:01.486Z,9.75
2019-03-21T03:14:34.900Z,9.75
2019-03-21T03:17:08.276Z,9.98
2019-03-21T03:19:41.772Z,9.45
2019-03-21T03:22:15.123Z,10.78
2019-03-21T03:24:48.610Z,9.98
2019-03-21T03:27:22.402Z,10.88
2019-03-21T03:29:55.901Z,9.58
2019-03-21T03:32:29.480Z,10.03
2019-03-21T03:35:03.215Z,10.38
2019-03-21T03:37:36.906Z,10.03
2019-03-21T03:40:23.727Z,9.18
2019-03-21T03:42:57.507Z,9.68
2019-03-21T03:45:38.302Z,11.28
2019-03-21T03:48:11.850Z,9.93
2019-03-21T03:50:45.211Z,10.58
2019-03-21T03:53:18.876Z,9.80
2019-03-21T03:55:52.276Z,10.18
2019-03-21T03:58:40.356Z,11.05
2019-03-21T04:01:14.062Z,9.48
2019-03-21T04:03:47.530Z,10.60
2019-03-21T04:06:20.895Z,10.48
2019-03-21T04:08:54.249Z,10.23
2019-03-21T04:11:27.737Z,10.85
2019-03-21T04:14:01.307Z,10.05
2019-03-21T04:16:34.725Z,11.22
2019-03-21T04:19:08.249Z,10.03
2019-03-21T04:21:41.648Z,10.58
2019-03-21T04:24:15.260Z,10.72
2019-03-21T04:26:48.987Z,10.53
2019-03-21T04:29:22.512Z,11.12
2019-03-21T04:31:55.906Z,11.68
2019-03-21T04:34:29.321Z,10.72
2019-03-21T04:37:02.976Z,10.35
2019-03-21T04:39:36.493Z,9.23
2019-03-21T04:42:10.554Z,9.58
2019-03-21T04:44:44.538Z,9.10
2019-03-21T04:47:19.422Z,9.08
2019-03-21T04:49:53.253Z,9.08
2019-03-21T04:52:27.145Z,9.90
2019-03-21T04:55:00.615Z,9.80
2019-03-21T04:57:34.672Z,10.48
2019-03-21T05:00:17.372Z,8.15
2019-03-21T05:02:53.039Z,9.95
2019-03-21T05:05:26.375Z,9.60
2019-03-21T05:07:59.830Z,9.88
2019-03-21T05:10:33.305Z,8.40
2019-03-21T05:13:07.039Z,9.23
2019-03-21T05:15:45.810Z,10.23
2019-03-21T05:18:25.453Z,8.45
2019-03-21T05:21:00.306Z,7.22
2019-03-21T05:23:33.762Z,7.40
2019-03-21T05:26:07.121Z,7.78
2019-03-21T05:28:40.525Z,7.62
2019-03-21T05:31:26.443Z,7.80
2019-03-21T05:33:59.888Z,7.72
2019-03-21T05:36:33.233Z,8.93
2019-03-21T05:39:09.115Z,8.83
2019-03-21T05:41:42.671Z,9.10
2019-03-21T05:44:31.261Z,8.35
2019-03-21T05:47:05.004Z,8.75
2019-03-21T05:49:38.705Z,9.35
2019-03-21T05:52:12.481Z,8.93
2019-03-21T05:54:46.120Z,8.98
2019-03-21T05:57:19.508Z,9.75
2019-03-21T05:59:53.147Z,9.50
2019-03-21T06:02:27.195Z,9.93
2019-03-21T06:05:00.672Z,8.73
2019-03-21T06:07:37.848Z,10.18
2019-03-21T06:10:14.593Z,9.30
2019-03-21T06:12:47.937Z,10.38
2019-03-21T06:15:24.482Z,10.45
2019-03-21T06:18:01.167Z,10.95
2019-03-21T06:20:55.852Z,10.72
2019-03-21T06:23:48.915Z,11.10
2019-03-21T06:26:50.365Z,11.40
2019-03-21T06:29:23.982Z,10.78
2019-03-21T06:31:57.551Z,12.47
2019-03-21T06:34:31.284Z,11.57
2019-03-21T06:37:04.743Z,11.55
2019-03-21T06:39:38.338Z,12.18
2019-03-21T06:42:11.653Z,11.83
2019-03-21T06:44:46.126Z,12.25
2019-03-21T06:47:19.272Z,12.15
2019-03-21T06:49:52.691Z,10.45
2019-03-21T06:52:26.115Z,12.43
2019-03-21T06:55:00.676Z,13.43
2019-03-21T06:57:34.818Z,12.95
2019-03-21T07:00:09.860Z,13.43
2019-03-21T07:02:43.279Z,12.40
2019-03-21T07:05:16.679Z,13.55
2019-03-21T07:07:50.393Z,12.45
2019-03-21T07:10:25.178Z,12.70
2019-03-21T07:12:58.700Z,11.85
2019-03-21T07:15:32.016Z,11.57
2019-03-21T07:18:05.769Z,11.83
2019-03-21T07:20:39.353Z,12.58
2019-03-21T07:23:13.790Z,13.65
2019-03-21T07:25:47.219Z,11.88
2019-03-21T07:28:20.562Z,13.18
2019-03-21T07:30:55.543Z,12.55
2019-03-21T07:33:29.198Z,13.65
2019-03-21T07:36:02.612Z,11.75
2019-03-21T07:38:36.029Z,12.07
2019-03-21T07:41:09.596Z,12.53
2019-03-21T07:43:42.936Z,12.47
2019-03-21T07:46:16.522Z,11.15
2019-03-21T07:48:49.927Z,10.75
2019-03-21T07:51:23.637Z,10.28
2019-03-21T07:53:57.044Z,9.18
2019-03-21T07:56:30.467Z,10.18
2019-03-21T07:59:03.885Z,9.55
2019-03-21T08:01:38.093Z,9.38
2019-03-21T08:04:11.683Z,9.38
2019-03-21T08:06:45.032Z,9.38
2019-03-21T08:09:18.603Z,9.25
2019-03-21T08:11:52.045Z,8.88
2019-03-21T08:14:25.347Z,8.43
2019-03-21T08:16:58.894Z,8.15
2019-03-21T08:19:32.214Z,8.13
2019-03-21T08:22:05.623Z,8.03
2019-03-21T08:24:38.975Z,8.35
2019-03-21T08:27:14.437Z,8.38
2019-03-21T08:29:47.786Z,8.33
2019-03-21T08:32:21.662Z,7.15
2019-03-21T08:34:55.177Z,10.25
2019-03-21T08:37:28.542Z,13.95
2019-03-21T08:40:03.028Z,10.93
2019-03-21T08:42:36.563Z,11.43
2019-03-21T08:45:09.927Z,10.08
2019-03-21T08:47:43.346Z,10.78
2019-03-21T08:50:16.846Z,9.80
2019-03-21T08:52:50.562Z,10.68
2019-03-21T08:55:23.851Z,9.13
2019-03-21T08:57:57.218Z,7.92
2019-03-21T09:00:34.439Z,9.83
2019-03-21T09:03:05.561Z,7.53
2019-03-21T09:05:38.880Z,8.28
2019-03-21T09:08:12.399Z,8.25
2019-03-21T09:10:45.770Z,7.78
2019-03-21T09:13:19.270Z,8.13
2019-03-21T09:15:52.762Z,7.47
2019-03-21T09:18:26.262Z,5.55
2019-03-21T09:20:59.605Z,7.47
2019-03-21T09:23:32.980Z,7.90
2019-03-21T09:26:06.281Z,7.35
2019-03-21T09:28:39.633Z,5.97
2019-03-21T09:31:13.008Z,7.87
2019-03-21T09:33:46.177Z,5.30
2019-03-21T09:36:21.154Z,6.95
2019-03-21T09:38:55.586Z,6.15
2019-03-21T09:41:28.924Z,6.53
2019-03-21T09:44:03.906Z,6.35
2019-03-21T09:46:37.204Z,6.22
2019-03-21T09:49:10.568Z,5.83
2019-03-21T09:51:44.195Z,5.70
2019-03-21T09:54:18.082Z,5.53
2019-03-21T09:56:51.376Z,5.00
2019-03-21T09:59:24.898Z,5.35
2019-03-21T10:01:58.290Z,5.62
2019-03-21T10:04:31.723Z,5.60
2019-03-21T10:07:05.143Z,5.58
2019-03-21T10:09:38.692Z,5.53
2019-03-21T10:12:12.125Z,5.78
2019-03-21T10:14:45.680Z,5.90
2019-03-21T10:17:19.324Z,6.05
2019-03-21T10:19:52.735Z,5.72
2019-03-21T10:22:26.314Z,5.65
2019-03-21T10:24:59.633Z,5.95
2019-03-21T10:27:34.612Z,5.83
2019-03-21T10:30:08.454Z,5.35
2019-03-21T10:32:42.938Z,5.25
2019-03-21T10:35:16.360Z,5.05
2019-03-21T10:37:49.663Z,4.55
2019-03-21T10:40:24.128Z,5.83
2019-03-21T10:42:57.428Z,5.80
2019-03-21T10:45:30.875Z,7.35
2019-03-21T10:48:04.552Z,6.97
2019-03-21T10:50:39.633Z,7.35
2019-03-21T10:53:12.989Z,7.35
2019-03-21T10:55:46.568Z,8.15
2019-03-21T10:58:19.872Z,7.70
2019-03-21T11:00:54.416Z,7.10
2019-03-21T11:03:27.781Z,6.92
2019-03-21T11:06:01.114Z,7.22
2019-03-21T11:08:34.532Z,7.45
2019-03-21T11:11:07.831Z,6.85
2019-03-21T11:13:41.194Z,6.62
2019-03-21T11:16:14.503Z,7.10
2019-03-21T11:18:47.893Z,7.25
2019-03-21T11:21:21.197Z,7.83
2019-03-21T11:23:54.615Z,8.28
2019-03-21T11:26:28.174Z,6.85
2019-03-21T11:29:01.539Z,7.40
2019-03-21T11:31:34.929Z,7.08
2019-03-21T11:34:08.355Z,7.90
2019-03-21T11:36:41.889Z,7.25
2019-03-21T11:39:15.330Z,7.72
2019-03-21T11:41:48.654Z,8.65
2019-03-21T11:44:22.231Z,7.42
2019-03-21T11:46:55.771Z,7.45
2019-03-21T11:49:29.163Z,9.25
2019-03-21T11:52:02.565Z,7.42
2019-03-21T11:54:36.055Z,8.00
2019-03-21T11:57:09.487Z,8.83
2019-03-21T11:59:51.530Z,9.23
2019-03-21T12:02:26.752Z,9.75
2019-03-21T12:04:53.321Z,9.90
2019-03-21T12:07:27.728Z,9.58
2019-03-21T12:10:00.916Z,9.88
2019-03-21T12:12:34.309Z,9.53
2019-03-21T12:15:12.351Z,9.50
2019-03-21T12:17:46.079Z,10.60
2019-03-21T12:20:27.629Z,10.28
2019-03-21T12:23:01.115Z,10.48
2019-03-21T12:25:34.457Z,10.13
2019-03-21T12:28:07.861Z,9.98
2019-03-21T12:30:41.437Z,11.73
2019-03-21T12:33:14.829Z,10.88
2019-03-21T12:35:48.260Z,10.60
2019-03-21T12:38:21.598Z,9.65
2019-03-21T12:40:55.145Z,11.48
2019-03-21T12:43:28.482Z,11.25
2019-03-21T12:46:02.024Z,12.88
2019-03-21T12:48:35.528Z,11.48
2019-03-21T12:51:08.954Z,10.60
2019-03-21T12:53:42.276Z,11.28
2019-03-21T12:56:15.627Z,12.18
2019-03-21T12:58:50.190Z,11.28
2019-03-21T13:01:23.556Z,11.03
2019-03-21T13:03:57.060Z,11.78
2019-03-21T13:06:30.424Z,10.70
2019-03-21T13:09:06.372Z,11.73
2019-03-21T13:11:39.845Z,11.20
2019-03-21T13:14:13.166Z,11.57
2019-03-21T13:16:46.700Z,10.78
2019-03-21T13:19:20.039Z,10.63
2019-03-21T13:21:53.543Z,11.10
2019-03-21T13:24:27.272Z,13.00
2019-03-21T13:27:00.721Z,11.18
2019-03-21T13:29:34.179Z,11.43
2019-03-21T13:32:07.706Z,12.40
2019-03-21T13:34:40.968Z,13.35
2019-03-21T13:37:14.323Z,11.35
2019-03-21T13:39:47.634Z,10.50
2019-03-21T13:42:21.006Z,9.88
2019-03-21T13:44:54.409Z,10.85
2019-03-21T13:47:29.471Z,11.20
2019-03-21T13:50:04.865Z,11.35
2019-03-21T13:52:39.279Z,11.60
2019-03-21T13:55:12.813Z,10.93
2019-03-21T13:57:46.213Z,11.68
2019-03-21T14:00:20.804Z,12.75
2019-03-21T14:02:54.201Z,12.50
2019-03-21T14:05:27.521Z,11.63
2019-03-21T14:08:00.985Z,11.33
2019-03-21T14:10:34.446Z,11.60
2019-03-21T14:13:07.916Z,12.00
2019-03-21T14:15:42.309Z,11.33
2019-03-21T14:18:15.873Z,11.97
2019-03-21T14:20:49.225Z,11.68
2019-03-21T14:23:23.284Z,11.15
2019-03-21T14:25:56.733Z,12.28
2019-03-21T14:28:30.103Z,10.75
2019-03-21T14:31:03.504Z,10.80
2019-03-21T14:33:37.002Z,10.85
2019-03-21T14:36:10.317Z,11.18
2019-03-21T14:38:43.758Z,10.10
2019-03-21T14:41:17.236Z,10.43
2019-03-21T14:43:50.863Z,10.95
2019-03-21T14:46:24.292Z,10.30
2019-03-21T14:48:57.759Z,11.73
2019-03-21T14:51:31.213Z,10.65
2019-03-21T14:54:04.570Z,11.12
2019-03-21T14:56:37.918Z,10.93
2019-03-21T14:59:11.325Z,10.15
2019-03-21T15:01:44.943Z,11.12
2019-03-21T15:04:18.326Z,9.95
2019-03-21T15:06:51.709Z,11.65
2019-03-21T15:09:25.192Z,11.80
2019-03-21T15:11:59.011Z,11.22
2019-03-21T15:14:32.539Z,9.55
2019-03-21T15:17:06.016Z,11.38
2019-03-21T15:19:39.502Z,11.25
2019-03-21T15:22:14.062Z,10.45
2019-03-21T15:24:47.603Z,9.55
2019-03-21T15:27:21.061Z,9.73
2019-03-21T15:29:56.266Z,9.10
2019-03-21T15:32:30.193Z,9.55
2019-03-21T15:35:07.272Z,9.20
2019-03-21T15:37:40.699Z,8.83
2019-03-21T15:40:14.816Z,8.83
2019-03-21T15:42:48.575Z,8.43
2019-03-21T15:45:23.781Z,8.68
2019-03-21T15:47:57.529Z,8.33
2019-03-21T15:50:38.372Z,7.92
2019-03-21T15:53:11.968Z,7.45
2019-03-21T15:55:45.483Z,8.23
2019-03-21T15:58:18.978Z,7.97
2019-03-21T16:00:52.861Z,7.50
2019-03-21T16:03:26.298Z,7.55
2019-03-21T16:05:59.629Z,7.42
2019-03-21T16:08:33.183Z,6.90
2019-03-21T16:11:06.613Z,6.87
2019-03-21T16:13:40.270Z,7.58
2019-03-21T16:16:13.759Z,6.75
2019-03-21T16:18:47.414Z,6.25
2019-03-21T16:21:20.809Z,5.92
2019-03-21T16:24:04.666Z,5.92
2019-03-21T16:26:29.236Z,6.37
2019-03-21T16:29:02.760Z,7.50
2019-03-21T16:31:36.348Z,7.45
2019-03-21T16:34:11.280Z,6.05
2019-03-21T16:36:45.161Z,7.40
2019-03-21T16:39:20.575Z,6.25
2019-03-21T16:41:54.216Z,6.72
2019-03-21T16:44:27.926Z,7.70
2019-03-21T16:47:01.538Z,7.25
2019-03-21T16:49:34.910Z,6.47
2019-03-21T16:52:08.844Z,6.95
2019-03-21T16:54:42.648Z,8.08
2019-03-21T16:57:16.248Z,6.78
2019-03-21T16:59:50.575Z,6.67
2019-03-21T17:02:24.541Z,6.85
2019-03-21T17:04:58.278Z,6.22
2019-03-21T17:07:31.852Z,6.72
2019-03-21T17:10:13.915Z,6.75
2019-03-21T17:12:47.798Z,8.78
2019-03-21T17:15:21.394Z,7.10
2019-03-21T17:17:55.099Z,7.87
2019-03-21T17:20:28.637Z,7.53
2019-03-21T17:23:02.159Z,7.65
2019-03-21T17:25:35.573Z,6.83
2019-03-21T17:28:09.490Z,7.67
2019-03-21T17:30:43.800Z,7.40
2019-03-21T17:33:17.301Z,6.95
2019-03-21T17:35:51.592Z,8.45
2019-03-21T17:38:25.182Z,8.18
2019-03-21T17:40:58.841Z,7.22
2019-03-21T17:43:32.236Z,9.35
2019-03-21T17:46:05.678Z,7.37
2019-03-21T17:48:40.345Z,8.18
2019-03-21T17:51:13.729Z,9.03
2019-03-21T17:53:47.346Z,8.53
2019-03-21T17:56:20.844Z,9.45
2019-03-21T17:58:54.164Z,9.53
2019-03-21T18:01:27.684Z,10.38
2019-03-21T18:04:00.989Z,9.30
2019-03-21T18:06:34.313Z,10.50
2019-03-21T18:09:07.911Z,10.32
2019-03-21T18:11:41.432Z,10.28
2019-03-21T18:14:14.792Z,11.08
2019-03-21T18:16:48.164Z,10.48
2019-03-21T18:19:21.623Z,10.93
2019-03-21T18:21:56.041Z,11.55
2019-03-21T18:24:29.466Z,10.85
2019-03-21T18:27:03.186Z,9.90
2019-03-21T18:29:36.730Z,10.28
2019-03-21T18:32:10.270Z,10.72
2019-03-21T18:34:43.986Z,10.58
2019-03-21T18:37:17.768Z,9.78
2019-03-21T18:39:51.260Z,10.15
2019-03-21T18:42:24.795Z,11.35
2019-03-21T18:44:58.052Z,10.48
2019-03-21T18:47:31.934Z,11.18
2019-03-21T18:50:10.329Z,11.00
2019-03-21T18:52:43.989Z,10.45
2019-03-21T18:55:17.400Z,9.88
2019-03-21T18:57:51.182Z,10.13
2019-03-21T19:00:24.590Z,9.55
2019-03-21T19:03:00.496Z,10.13
2019-03-21T19:05:37.125Z,10.95
2019-03-21T19:08:11.378Z,10.72
2019-03-21T19:11:03.681Z,10.25
2019-03-21T19:13:49.860Z,10.13
2019-03-21T19:16:25.118Z,10.15
2019-03-21T19:19:03.204Z,9.48
2019-03-21T19:21:38.686Z,10.63
2019-03-21T19:24:14.151Z,8.93
2019-03-21T19:26:53.616Z,9.45
2019-03-21T19:29:29.153Z,9.00
2019-03-21T19:32:02.681Z,8.98
2019-03-21T19:34:36.203Z,8.88
2019-03-21T19:37:09.669Z,8.75
2019-03-21T19:39:43.817Z,10.28
2019-03-21T19:42:17.947Z,9.63
2019-03-21T19:44:51.739Z,9.33
2019-03-21T19:47:30.323Z,9.83
2019-03-21T19:50:00.673Z,8.45
2019-03-21T19:52:34.137Z,8.20
2019-03-21T19:55:08.131Z,8.80
2019-03-21T19:57:41.505Z,9.38
2019-03-21T20:00:22.001Z,8.75
2019-03-21T20:02:55.399Z,9.73
2019-03-21T20:05:28.796Z,10.23
2019-03-21T20:08:02.299Z,9.85
2019-03-21T20:10:35.756Z,10.38
2019-03-21T20:13:09.243Z,9.05
2019-03-21T20:15:42.806Z,9.80
2019-03-21T20:18:16.391Z,9.40
2019-03-21T20:20:50.063Z,10.28
2019-03-21T20:23:23.464Z,9.88
2019-03-21T20:25:56.860Z,9.53
2019-03-21T20:28:30.295Z,10.30
2019-03-21T20:31:03.720Z,10.30
2019-03-21T20:33:37.120Z,10.95
2019-03-21T20:36:10.524Z,9.13
2019-03-21T20:38:43.925Z,9.23
2019-03-21T20:41:17.383Z,8.78
2019-03-21T20:43:50.910Z,9.03
2019-03-21T20:46:24.272Z,9.00
2019-03-21T20:48:56.705Z,8.28
2019-03-21T20:51:30.088Z,7.17
2019-03-21T20:54:03.352Z,7.30
2019-03-21T20:56:37.045Z,7.22
2019-03-21T20:59:10.228Z,6.87
2019-03-21T21:01:43.637Z,6.67
2019-03-21T21:04:17.122Z,6.75
2019-03-21T21:06:50.648Z,7.62
2019-03-21T21:09:24.068Z,6.70
2019-03-21T21:11:57.412Z,6.42
2019-03-21T21:14:30.806Z,6.83
2019-03-21T21:17:04.167Z,6.28
2019-03-21T21:19:37.675Z,6.03
2019-03-21T21:22:11.055Z,6.45
2019-03-21T21:24:44.361Z,6.25
2019-03-21T21:27:17.689Z,6.17
2019-03-21T21:29:52.264Z,6.35
2019-03-21T21:32:25.840Z,6.45
2019-03-21T21:34:59.273Z,6.62
2019-03-21T21:37:32.783Z,6.03
2019-03-21T21:40:07.654Z,6.50
2019-03-21T21:42:41.016Z,5.85
2019-03-21T21:45:15.652Z,5.83
2019-03-21T21:47:49.058Z,6.65
2019-03-21T21:50:22.384Z,5.87
2019-03-21T21:52:56.033Z,6.40
2019-03-21T21:55:29.402Z,6.22
2019-03-21T21:58:04.339Z,6.30
2019-03-21T22:00:37.690Z,6.65
2019-03-21T22:03:11.006Z,6.70
2019-03-21T22:05:44.562Z,5.83
2019-03-21T22:08:17.905Z,6.35
2019-03-21T22:10:51.250Z,6.65
2019-03-21T22:13:24.596Z,6.10
2019-03-21T22:15:57.860Z,6.37
2019-03-21T22:18:31.396Z,6.85
2019-03-21T22:21:04.853Z,7.10
2019-03-21T22:23:38.192Z,7.40
2019-03-21T22:26:11.669Z,6.30
2019-03-21T22:28:44.993Z,7.42
2019-03-21T22:31:18.290Z,7.33
2019-03-21T22:33:52.030Z,6.90
2019-03-21T22:36:25.367Z,6.80
2019-03-21T22:38:58.994Z,7.37
2019-03-21T22:41:32.379Z,7.67
2019-03-21T22:44:05.708Z,7.67
2019-03-21T22:46:39.029Z,8.00
2019-03-21T22:49:12.382Z,7.83
2019-03-21T22:51:46.685Z,7.78
2019-03-21T22:54:20.076Z,8.80
2019-03-21T22:56:53.530Z,8.13
2019-03-21T22:59:26.869Z,7.85
2019-03-21T23:02:01.593Z,8.35
2019-03-21T23:04:35.082Z,7.47
2019-03-21T23:07:08.468Z,7.65
2019-03-21T23:09:41.798Z,7.65
2019-03-21T23:12:15.273Z,8.15
2019-03-21T23:14:48.711Z,8.20
2019-03-21T23:17:22.140Z,8.40
2019-03-21T23:19:55.465Z,8.20
2019-03-21T23:22:28.832Z,8.45
2019-03-21T23:25:02.976Z,9.03
2019-03-21T23:27:36.405Z,8.93
2019-03-21T23:30:17.555Z,9.85
2019-03-21T23:32:50.891Z,9.85
2019-03-21T23:35:24.221Z,10.35
2019-03-21T23:37:57.558Z,10.55
2019-03-21T23:40:32.033Z,10.58
2019-03-21T23:43:05.432Z,10.28
2019-03-21T23:45:38.739Z,10.13
2019-03-21T23:48:12.202Z,9.95
2019-03-21T23:50:45.595Z,10.55
2019-03-21T23:53:18.967Z,10.03
2019-03-21T23:55:52.543Z,9.93
2019-03-21T23:58:25.914Z,9.80
